Weather at Diyarbakır Airport

Public forecast

Using degrees Celsius for public forecast. Weather courtesy of forecast.io.

Current aviation weather report (METAR) for Diyarbakır Airport

2024/05/29 13:50 (retrieved 23 minutes ago)

LTCC 291350Z 20010G20KT 170V230 CAVOK 33/05 Q1010 NOSIG RMK RWY16 19012KT SKC

Aviation forecast (TAF) for Diyarbakır Airport

2024/05/29 12:00 (retrieved 2 hours ago)

TAF LTCC 291040Z 2912/3012 20012KT 9999 FEW040 BECMG 2912/2914 CAVOK